메인 페이지
METAR-TAF:

METAR-TAF

공항 :

아타튀르크 국제공항

이스탄불 이스탄불, 터키

위도: 40-58N, 경도: 028-49E, 고도: 48m

현재 날씨관측

예보는 46분 전, 11:20시(UTC)에 발표되었습니다.
남남동5kt동북동풍과 남서풍을 오가는
온도 13°C
습도 54%
기압 1018 hPa
시정 10km 이상
1500m 미만 상공 구름 및 적란운 없음

METAR: LTBA 201120Z 15005KT 070V230 CAVOK 13/04 Q1018 NOSIG RMK RWY17L 12005KT 070V180 RWY05 VRB02KT RWY23 12005KT

시각: 15:06 (12:06 UTC)

예보

예보는 1 시간 26분 전, 10:40시(UTC)에 발표되었습니다.
예보 대상 시간: 20일 12시부터 21일 18시까지 (UTC)
남남동6kt
시정 10km 이상
1500m 미만 상공 구름 및 적란운 없음
전환 중
20일 17시부터 20일 20시까지 (UTC)
고도 3000ft 상공 구름 보통
확률 30%
21일 00시부터 21일 04시까지 (UTC)
시정: 4000m
박무
전환 중
21일 04시부터 21일 07시까지 (UTC)
10kt
고도 2000ft 상공 구름 많음
고도 8000ft 상공 구름 많음
일시적
21일 12시부터 21일 16시까지 (UTC)
약한소나기

TAF: LTBA 201040Z 2012/2118 15006KT CAVOK BECMG 2017/2020 SCT030 PROB30 2100/2104 4000 BR BECMG 2104/2107 01010KT BKN020 BKN080 TEMPO 2112/2116 -SHRA

4,000개 이상의 공항 관측 자료 및 예보 (METAR 및 TAF 보고).

지도상에서 검색 가능한 기상관측소가 노란 점과 빨간 점으로 표시되어 있습니다.

기상관측소 명을 보려면 표시 위로 마우스를 이동하세요.

날씨 관측과 예보를 보려면 클릭하세요.

지도 변경 : 확대하려면 엑스 표시가 있는 녹색 버튼, 축소하려면 빼기 표시가 있는 녹색 버튼, 다음 페이지의 지도를 보려면 녹색 화살표를 클릭하세요.


METAR-TAF: